Time;durP1;ratioP1;P1;durP2;ratioP2;P2;SDS_P1;SDS_P2;PMS_P1;PMS_P2;Temp;Humidity;BMP_temperature;BMP_pressure;BME280_temperature;BME280_humidity;BME280_pressure;Samples;Min_cycle;Max_cycle;Signal;HPM_P1;HPM_P2
2024/04/11 00:00:36;;;;;;;2.83;1.37;;;10.70;98.40;;;;;;5384629;26;20371;-73
2024/04/11 00:03:01;;;;;;;2.17;1.70;;;10.60;98.70;;;;;;5377551;26;21000;-75
2024/04/11 00:05:27;;;;;;;4.80;1.63;;;10.60;98.60;;;;;;5383743;26;20766;-70
2024/04/11 00:07:53;;;;;;;2.80;1.50;;;10.70;98.70;;;;;;5381107;26;20254;-71
2024/04/11 00:10:19;;;;;;;2.50;1.40;;;10.60;98.80;;;;;;5358740;26;20531;-74
2024/04/11 00:12:46;;;;;;;1.67;1.57;;;10.50;99.10;;;;;;5383069;26;20288;-68
2024/04/11 00:15:11;;;;;;;1.90;1.70;;;10.40;99.30;;;;;;5373931;26;20492;-70
2024/04/11 00:17:37;;;;;;;1.00;1.00;;;10.40;99.40;;;;;;5387173;26;20313;-69
2024/04/11 00:20:03;;;;;;;1.87;1.40;;;10.40;99.00;;;;;;5387592;26;20274;-69
2024/04/11 00:22:29;;;;;;;1.40;1.30;;;10.50;99.10;;;;;;5383714;26;20369;-69
2024/04/11 00:24:55;;;;;;;1.70;1.57;;;10.40;98.90;;;;;;5406018;26;20986;-71
2024/04/11 00:27:22;;;;;;;1.20;1.10;;;10.30;99.10;;;;;;5390770;26;20694;-71
2024/04/11 00:29:47;;;;;;;1.27;1.17;;;10.40;99.10;;;;;;5386014;26;20312;-71
2024/04/11 00:32:13;;;;;;;2.73;1.70;;;10.40;99.10;;;;;;5371541;26;20928;-71
2024/04/11 00:34:43;;;;;;;1.70;1.30;;;10.30;99.10;;;;;;5383373;26;20284;-72
2024/04/11 00:37:11;;;;;;;2.07;1.30;;;10.20;98.90;;;;;;5381817;26;20274;-73
2024/04/11 00:39:37;;;;;;;1.40;1.30;;;10.00;99.20;;;;;;5385591;26;20483;-72
2024/04/11 00:42:03;;;;;;;1.87;1.70;;;10.10;99.50;;;;;;5357818;26;20503;-74
2024/04/11 00:44:32;;;;;;;1.57;1.40;;;10.10;99.40;;;;;;5387117;26;20529;-72
2024/04/11 00:46:58;;;;;;;1.73;1.50;;;10.10;99.40;;;;;;5379271;26;20597;-71
2024/04/11 00:49:25;;;;;;;4.20;1.37;;;10.10;99.30;;;;;;5377220;26;20595;-69
2024/04/11 00:51:51;;;;;;;1.23;1.10;;;10.00;99.40;;;;;;5379848;26;20312;-70
2024/04/11 00:54:17;;;;;;;1.97;1.47;;;10.00;99.20;;;;;;5383678;26;20492;-74
2024/04/11 00:56:44;;;;;;;3.43;1.67;;;10.10;99.30;;;;;;5382743;26;20297;-71
2024/04/11 00:59:10;;;;;;;1.40;1.30;;;10.00;99.30;;;;;;5377313;26;21089;-71
2024/04/11 01:01:36;;;;;;;1.50;1.27;;;10.00;99.20;;;;;;5386209;26;20565;-70
2024/04/11 01:04:06;;;;;;;2.73;1.50;;;9.90;99.90;;;;;;5381681;26;20492;-70
2024/04/11 01:09:48;;;;;;;2.60;2.10;;;9.80;99.90;;;;;;5380530;26;20483;-70
2024/04/11 01:12:16;;;;;;;2.10;1.57;;;9.70;99.90;;;;;;5387387;26;20548;-71
2024/04/11 01:14:44;;;;;;;1.90;1.40;;;9.40;99.90;;;;;;5384687;26;20484;-70
2024/04/11 01:17:16;;;;;;;3.37;1.40;;;9.50;99.90;;;;;;5383739;26;20513;-72
2024/04/11 01:19:43;;;;;;;1.70;1.30;;;9.70;99.90;;;;;;5363256;26;20496;-71
2024/04/11 01:22:12;;;;;;;2.60;1.50;;;9.80;99.90;;;;;;5383558;26;20528;-73
2024/04/11 01:24:40;;;;;;;2.63;2.00;;;9.80;99.90;;;;;;5383724;26;20503;-70
2024/04/11 01:27:07;;;;;;;2.93;1.47;;;9.90;99.90;;;;;;5380345;26;20904;-70
2024/04/11 01:29:38;;;;;;;2.20;1.80;;;9.80;99.90;;;;;;5379997;26;20502;-69
2024/04/11 01:32:08;;;;;;;1.60;1.50;;;9.60;99.90;;;;;;5371763;26;20491;-71
2024/04/11 01:34:34;;;;;;;2.50;1.33;;;9.60;99.90;;;;;;5390372;26;20481;-70
2024/04/11 01:37:00;;;;;;;1.70;1.40;;;9.60;99.90;;;;;;5379316;26;20497;-70
2024/04/11 01:39:26;;;;;;;2.07;1.70;;;9.70;99.90;;;;;;5380812;26;20502;-71
2024/04/11 01:41:53;;;;;;;2.77;1.70;;;9.70;99.90;;;;;;5380602;26;20545;-73
2024/04/11 01:44:18;;;;;;;3.90;1.93;;;9.70;99.90;;;;;;5382373;26;20258;-70
2024/04/11 01:46:44;;;;;;;1.60;1.47;;;9.60;99.90;;;;;;5380072;26;20544;-71
2024/04/11 01:49:10;;;;;;;1.30;1.20;;;9.60;99.90;;;;;;5349664;26;20288;-70
2024/04/11 01:51:36;;;;;;;1.80;1.60;;;9.60;99.90;;;;;;5395489;26;20265;-72
2024/04/11 01:54:05;;;;;;;2.40;1.80;;;9.60;99.90;;;;;;5386864;26;20295;-69
2024/04/11 01:56:34;;;;;;;2.23;1.87;;;9.50;99.90;;;;;;5385498;26;20553;-70
2024/04/11 01:59:03;;;;;;;1.63;1.47;;;9.50;99.90;;;;;;5402837;26;20488;-70
2024/04/11 02:01:34;;;;;;;2.40;1.60;;;9.50;99.90;;;;;;5384737;26;21085;-71
2024/04/11 02:04:06;;;;;;;1.40;1.30;;;9.50;99.90;;;;;;5391343;26;20502;-68
2024/04/11 02:06:36;;;;;;;1.50;1.10;;;9.50;99.90;;;;;;5385052;26;20483;-68
2024/04/11 02:09:09;;;;;;;1.90;1.50;;;9.40;99.90;;;;;;5379648;26;20539;-71
2024/04/11 02:11:42;;;;;;;1.93;1.30;;;9.50;99.90;;;;;;5377622;26;20508;-69
2024/04/11 02:14:07;;;;;;;1.90;1.50;;;9.40;99.90;;;;;;5367330;26;20480;-71
2024/04/11 02:16:35;;;;;;;2.40;1.40;;;9.40;99.90;;;;;;5393791;26;20599;-71
2024/04/11 02:19:06;;;;;;;1.50;1.40;;;9.40;99.90;;;;;;5383544;26;20250;-69
2024/04/11 02:21:38;;;;;;;2.20;1.43;;;9.40;99.90;;;;;;5355666;26;20512;-72
2024/04/11 02:24:06;;;;;;;1.43;1.30;;;9.40;99.90;;;;;;5379879;26;21004;-71
2024/04/11 02:26:34;;;;;;;1.50;1.40;;;9.30;99.90;;;;;;5417804;26;20534;-72
2024/04/11 02:29:03;;;;;;;1.50;1.40;;;9.30;99.90;;;;;;5361543;26;20566;-71
2024/04/11 02:31:29;;;;;;;4.70;1.80;;;9.20;99.90;;;;;;5380834;26;20479;-72
2024/04/11 02:33:57;;;;;;;2.03;1.13;;;9.10;99.90;;;;;;5360005;26;20583;-72
2024/04/11 02:36:29;;;;;;;1.80;1.60;;;8.90;99.90;;;;;;5382734;26;20295;-72
2024/04/11 02:38:56;;;;;;;1.37;1.20;;;9.00;99.90;;;;;;5378041;26;20480;-71
2024/04/11 02:41:22;;;;;;;1.70;1.30;;;9.00;99.90;;;;;;5384037;26;20483;-70
2024/04/11 02:43:48;;;;;;;3.10;1.77;;;9.00;99.90;;;;;;5348699;26;20875;-71
2024/04/11 02:46:18;;;;;;;2.30;1.30;;;9.00;99.90;;;;;;5376094;26;20265;-70
2024/04/11 02:48:45;;;;;;;1.90;1.30;;;9.00;99.90;;;;;;5382059;26;20483;-70
2024/04/11 02:51:15;;;;;;;3.63;1.20;;;9.00;99.90;;;;;;5376629;26;20556;-72
2024/04/11 02:53:41;;;;;;;1.40;1.30;;;9.00;99.90;;;;;;5378236;26;21017;-71
2024/04/11 02:56:10;;;;;;;1.43;1.33;;;9.00;99.90;;;;;;5390330;26;20536;-71
2024/04/11 02:58:37;;;;;;;4.43;1.80;;;9.00;99.90;;;;;;5386016;26;20547;-71
2024/04/11 03:01:06;;;;;;;2.53;1.47;;;9.00;99.90;;;;;;5381280;26;20564;-71
2024/04/11 03:03:34;;;;;;;1.80;1.40;;;8.90;99.90;;;;;;5387776;26;21000;-71
2024/04/11 03:06:16;;;;;;;2.30;1.50;;;8.90;99.90;;;;;;5372088;26;20562;-70
2024/04/11 03:08:42;;;;;;;1.37;1.27;;;8.90;99.90;;;;;;5414093;26;21121;-68
2024/04/11 03:11:12;;;;;;;1.53;1.37;;;8.90;99.90;;;;;;5394424;26;20486;-70
2024/04/11 03:13:40;;;;;;;2.17;1.43;;;8.90;99.90;;;;;;5392593;26;20300;-70
2024/04/11 03:16:06;;;;;;;2.50;2.00;;;8.90;99.90;;;;;;5395169;26;20480;-70
2024/04/11 03:18:34;;;;;;;3.17;1.70;;;8.90;99.90;;;;;;5379918;26;20482;-71
2024/04/11 03:21:00;;;;;;;7.23;1.40;;;8.80;99.90;;;;;;5389892;26;20262;-74
2024/04/11 03:23:27;;;;;;;3.23;1.40;;;8.70;99.90;;;;;;5395851;26;21008;-74
2024/04/11 03:25:53;;;;;;;1.80;1.53;;;8.70;99.90;;;;;;5394407;26;20483;-68
2024/04/11 03:28:19;;;;;;;7.60;2.00;;;8.70;99.90;;;;;;5397416;26;20487;-70
2024/04/11 03:31:04;;;;;;;1.60;1.20;;;8.70;99.90;;;;;;5359186;26;20532;-71
2024/04/11 03:33:32;;;;;;;2.93;1.30;;;8.70;99.90;;;;;;5388649;26;20490;-69
2024/04/11 03:36:05;;;;;;;2.30;1.43;;;8.60;99.90;;;;;;5396180;26;20487;-71
2024/04/11 03:38:32;;;;;;;1.80;1.70;;;8.60;99.90;;;;;;5402839;26;20550;-71
2024/04/11 03:40:59;;;;;;;2.67;1.80;;;8.60;99.90;;;;;;5390996;26;20523;-70
2024/04/11 03:43:28;;;;;;;1.20;1.10;;;8.60;99.90;;;;;;5381200;26;20483;-71
2024/04/11 03:46:07;;;;;;;1.83;1.50;;;8.60;99.90;;;;;;5387584;26;20494;-69
2024/04/11 03:48:33;;;;;;;2.53;1.50;;;8.50;99.90;;;;;;5382277;26;20498;-70
2024/04/11 03:51:20;;;;;;;1.40;1.30;;;8.50;99.90;;;;;;5378482;26;20572;-71
2024/04/11 03:53:47;;;;;;;1.33;1.23;;;8.50;99.90;;;;;;5382159;26;20591;-71
2024/04/11 03:56:18;;;;;;;1.47;1.30;;;8.50;99.90;;;;;;5388432;26;20554;-70
2024/04/11 03:58:45;;;;;;;1.50;1.40;;;8.50;99.90;;;;;;5383801;26;20548;-70
2024/04/11 04:01:15;;;;;;;2.17;1.60;;;8.50;99.90;;;;;;5379675;26;20534;-71
2024/04/11 04:03:42;;;;;;;5.80;1.97;;;8.40;99.90;;;;;;5379010;26;20621;-70
2024/04/11 04:06:13;;;;;;;2.63;1.80;;;8.40;99.90;;;;;;5378142;26;20488;-71
2024/04/11 04:08:46;;;;;;;3.30;2.37;;;8.40;99.90;;;;;;5385324;26;20566;-74
2024/04/11 04:11:14;;;;;;;4.60;2.67;;;8.40;99.90;;;;;;5377227;26;20496;-74
2024/04/11 04:13:43;;;;;;;2.57;2.03;;;8.30;99.90;;;;;;5381025;26;20629;-71
2024/04/11 04:16:17;;;;;;;1.50;1.40;;;8.30;99.90;;;;;;5384216;26;20546;-70
2024/04/11 04:18:46;;;;;;;4.77;1.53;;;8.30;99.90;;;;;;5389487;26;20500;-69
2024/04/11 04:21:16;;;;;;;2.30;2.10;;;8.20;99.90;;;;;;5347880;26;20484;-74
2024/04/11 04:23:48;;;;;;;2.80;2.00;;;8.20;99.90;;;;;;5383596;26;20480;-72
2024/04/11 04:26:16;;;;;;;3.60;1.60;;;8.20;99.90;;;;;;5358540;26;20601;-71
2024/04/11 04:28:42;;;;;;;1.63;1.53;;;8.10;99.90;;;;;;5368697;26;20562;-71
2024/04/11 04:31:22;;;;;;;2.13;1.70;;;8.10;99.90;;;;;;5379525;26;20488;-71
2024/04/11 04:33:53;;;;;;;1.40;1.30;;;8.10;99.90;;;;;;5387042;26;20483;-71
2024/04/11 04:36:29;;;;;;;1.67;1.57;;;8.00;99.90;;;;;;5377493;26;20483;-71
2024/04/11 04:38:56;;;;;;;5.13;1.97;;;8.00;99.90;;;;;;5358713;26;20484;-70
2024/04/11 04:41:26;;;;;;;3.10;1.60;;;8.00;99.90;;;;;;5390870;26;20479;-72
2024/04/11 04:43:54;;;;;;;6.90;1.97;;;8.00;99.90;;;;;;5378023;26;20599;-71
2024/04/11 04:46:22;;;;;;;1.73;1.43;;;8.00;99.90;;;;;;5413915;26;20499;-73
2024/04/11 04:48:48;;;;;;;2.00;1.77;;;7.90;99.90;;;;;;5378836;26;20548;-71
2024/04/11 04:51:17;;;;;;;1.80;1.70;;;8.00;99.90;;;;;;5376343;26;20532;-72
2024/04/11 04:53:44;;;;;;;2.03;1.57;;;7.90;99.90;;;;;;5383460;26;20496;-71
2024/04/11 04:56:10;;;;;;;1.97;1.50;;;7.90;99.90;;;;;;5384896;26;20617;-71
2024/04/11 04:58:42;;;;;;;1.80;1.30;;;7.90;99.90;;;;;;5381563;26;20499;-71
2024/04/11 05:01:08;;;;;;;6.43;2.07;;;7.70;99.90;;;;;;5377944;26;20357;-69
2024/04/11 05:03:34;;;;;;;2.10;1.63;;;7.70;99.90;;;;;;5361908;26;21213;-70
2024/04/11 05:06:02;;;;;;;1.93;1.70;;;7.70;99.90;;;;;;5380491;26;20669;-69
2024/04/11 05:08:34;;;;;;;1.80;1.70;;;7.70;99.90;;;;;;5378965;26;20581;-70
2024/04/11 05:11:00;;;;;;;1.63;1.53;;;7.80;99.90;;;;;;5375926;26;20532;-72
2024/04/11 05:13:32;;;;;;;4.23;1.80;;;7.60;99.90;;;;;;5382700;26;20495;-70
2024/04/11 05:16:01;;;;;;;4.73;1.80;;;7.70;99.90;;;;;;5391544;26;20539;-70
2024/04/11 05:18:27;;;;;;;2.10;1.20;;;7.80;99.90;;;;;;5385761;26;20495;-73
2024/04/11 05:20:52;;;;;;;5.33;2.00;;;7.80;99.90;;;;;;5359653;26;20484;-70
2024/04/11 05:23:19;;;;;;;2.03;1.60;;;7.80;99.90;;;;;;5383435;26;20254;-69
2024/04/11 05:25:46;;;;;;;2.10;1.40;;;7.80;99.90;;;;;;5400074;26;20276;-70
2024/04/11 05:28:12;;;;;;;4.27;1.57;;;7.80;99.90;;;;;;5393535;26;20891;-70
2024/04/11 05:30:43;;;;;;;2.00;1.23;;;7.80;99.90;;;;;;5385121;26;20490;-69
2024/04/11 05:33:09;;;;;;;1.57;1.37;;;7.80;99.90;;;;;;5381667;26;20498;-68
2024/04/11 05:35:36;;;;;;;2.17;1.70;;;7.90;99.90;;;;;;5385645;26;20539;-71
2024/04/11 05:38:02;;;;;;;2.13;2.03;;;7.90;99.90;;;;;;5379788;26;20370;-73
2024/04/11 05:40:28;;;;;;;2.27;2.07;;;7.90;99.90;;;;;;5380323;26;20491;-72
2024/04/11 05:42:54;;;;;;;1.97;1.80;;;7.90;99.90;;;;;;5380720;26;20611;-71
2024/04/11 05:45:23;;;;;;;2.13;1.80;;;7.90;99.90;;;;;;5383377;26;20477;-71
2024/04/11 05:47:51;;;;;;;4.00;2.00;;;8.00;99.90;;;;;;5395295;26;20479;-71
2024/04/11 05:50:17;;;;;;;2.63;1.60;;;8.00;99.90;;;;;;5385984;26;21082;-70
2024/04/11 05:52:43;;;;;;;2.87;1.90;;;8.00;99.90;;;;;;5383114;26;20492;-72
2024/04/11 05:55:12;;;;;;;4.37;2.07;;;8.00;99.90;;;;;;5376990;26;20261;-73
2024/04/11 05:57:39;;;;;;;2.87;2.00;;;8.00;99.90;;;;;;5388827;26;20551;-71
2024/04/11 06:00:08;;;;;;;3.00;2.33;;;8.00;99.90;;;;;;5375123;26;20549;-71
2024/04/11 06:02:38;;;;;;;2.60;2.10;;;8.10;99.90;;;;;;5379810;26;20494;-73
2024/04/11 06:05:07;;;;;;;4.10;2.30;;;8.10;99.90;;;;;;5375538;26;20599;-71
2024/04/11 06:07:35;;;;;;;5.47;2.90;;;8.10;99.90;;;;;;5381355;26;20551;-72
2024/04/11 06:10:04;;;;;;;2.50;2.20;;;8.20;99.90;;;;;;5369727;26;20484;-73
2024/04/11 06:12:33;;;;;;;5.60;3.00;;;8.20;99.90;;;;;;5389002;26;20493;-72
2024/04/11 06:14:59;;;;;;;5.77;2.67;;;8.20;99.90;;;;;;5377215;26;20506;-72
2024/04/11 06:17:28;;;;;;;3.97;2.30;;;8.30;99.90;;;;;;5383832;26;20543;-72
2024/04/11 06:19:55;;;;;;;3.80;2.87;;;8.30;99.90;;;;;;5352150;26;20496;-71
2024/04/11 06:22:22;;;;;;;3.53;2.30;;;8.30;99.90;;;;;;5387374;26;21019;-73
2024/04/11 06:24:47;;;;;;;3.47;1.80;;;8.40;99.90;;;;;;5381065;26;20500;-71
2024/04/11 06:27:13;;;;;;;2.40;1.90;;;8.40;99.90;;;;;;5379718;26;20535;-72
2024/04/11 06:29:42;;;;;;;2.57;2.37;;;8.50;99.90;;;;;;5370436;26;20307;-72
2024/04/11 06:32:12;;;;;;;2.97;1.53;;;8.50;99.90;;;;;;5345515;26;20292;-71
2024/04/11 06:34:41;;;;;;;2.47;2.07;;;8.60;99.90;;;;;;5379473;26;20495;-71
2024/04/11 06:37:11;;;;;;;4.37;2.30;;;8.60;99.90;;;;;;5359726;26;20546;-72
2024/04/11 06:39:40;;;;;;;2.37;1.70;;;8.60;99.90;;;;;;5358921;26;20490;-72
2024/04/11 06:42:13;;;;;;;1.90;1.50;;;8.70;99.90;;;;;;5372357;26;20491;-72
2024/04/11 06:44:45;;;;;;;2.87;1.67;;;8.70;99.90;;;;;;5385693;26;20547;-72
2024/04/11 06:47:12;;;;;;;3.97;2.07;;;8.80;99.90;;;;;;5378219;26;20503;-72
2024/04/11 06:49:39;;;;;;;4.53;1.90;;;8.90;99.90;;;;;;5383321;26;20491;-71
2024/04/11 06:52:05;;;;;;;3.17;2.20;;;8.90;99.90;;;;;;5385647;26;20476;-71
2024/04/11 06:54:31;;;;;;;2.43;2.00;;;8.90;99.90;;;;;;5383229;26;20490;-73
2024/04/11 06:56:58;;;;;;;3.17;2.17;;;8.90;99.90;;;;;;5376557;26;20568;-71
2024/04/11 06:59:24;;;;;;;2.83;1.67;;;8.90;99.90;;;;;;5378288;26;20618;-70
2024/04/11 07:01:52;;;;;;;4.20;1.90;;;9.00;99.90;;;;;;5389475;26;20480;-73
2024/04/11 07:04:18;;;;;;;3.43;2.20;;;9.00;99.90;;;;;;5377380;26;20499;-71
2024/04/11 07:06:48;;;;;;;3.40;1.70;;;9.10;99.90;;;;;;5386137;26;20603;-72
2024/04/11 07:09:14;;;;;;;3.70;1.73;;;9.20;99.90;;;;;;5387786;26;20287;-72
2024/04/11 07:11:40;;;;;;;2.00;1.80;;;9.20;99.90;;;;;;5388879;26;20504;-71
2024/04/11 07:14:15;;;;;;;5.70;1.87;;;9.30;99.90;;;;;;5350989;26;20296;-72
2024/04/11 07:16:44;;;;;;;2.93;1.53;;;9.30;99.90;;;;;;5382421;26;20551;-71
2024/04/11 07:19:11;;;;;;;1.63;1.53;;;9.30;99.90;;;;;;5358183;26;20585;-70
2024/04/11 07:21:38;;;;;;;3.53;1.67;;;9.40;99.90;;;;;;5414492;26;20482;-73
2024/04/11 07:24:06;;;;;;;2.60;2.40;;;9.40;99.90;;;;;;5392853;26;20494;-71
2024/04/11 07:26:33;;;;;;;2.87;1.80;;;9.50;99.90;;;;;;5390707;26;20490;-72
2024/04/11 07:29:03;;;;;;;3.40;1.90;;;9.50;99.90;;;;;;5353957;26;21087;-72
2024/04/11 07:31:30;;;;;;;3.57;1.90;;;9.60;99.90;;;;;;5392497;26;20546;-72
2024/04/11 07:33:58;;;;;;;3.17;1.90;;;9.70;99.90;;;;;;5391428;26;20498;-72
2024/04/11 07:36:25;;;;;;;5.13;1.67;;;9.80;99.90;;;;;;5382805;26;20500;-73
2024/04/11 07:38:57;;;;;;;8.87;2.43;;;9.80;99.90;;;;;;5387826;26;21011;-72
2024/04/11 07:41:27;;;;;;;10.20;1.77;;;9.80;99.90;;;;;;5393442;26;20543;-71
2024/04/11 07:43:59;;;;;;;5.60;1.87;;;9.90;99.90;;;;;;5389746;26;20558;-71
2024/04/11 07:46:28;;;;;;;2.03;1.93;;;10.00;99.90;;;;;;5386247;26;20488;-72
2024/04/11 07:48:58;;;;;;;1.63;1.53;;;10.20;99.90;;;;;;5384826;26;20486;-72
2024/04/11 07:51:26;;;;;;;5.87;1.70;;;10.30;99.90;;;;;;5382937;26;20487;-72
2024/04/11 07:53:52;;;;;;;1.83;1.40;;;10.50;99.90;;;;;;5381080;26;20498;-71
2024/04/11 07:56:20;;;;;;;1.87;1.30;;;10.50;99.90;;;;;;5396620;26;20549;-71
2024/04/11 07:58:56;;;;;;;3.40;1.53;;;10.50;99.90;;;;;;5383080;26;20585;-71
2024/04/11 08:01:31;;;;;;;2.63;2.10;;;10.80;99.90;;;;;;5360425;26;20584;-74
2024/04/11 08:04:00;;;;;;;3.60;1.53;;;11.00;99.90;;;;;;5390638;26;20498;-71
2024/04/11 08:06:27;;;;;;;2.10;1.90;;;11.20;99.90;;;;;;5398442;26;20535;-73
2024/04/11 08:08:53;;;;;;;5.00;2.20;;;11.20;99.90;;;;;;5380638;26;21035;-72
2024/04/11 08:11:20;;;;;;;3.03;2.17;;;11.30;99.90;;;;;;5389954;26;20508;-72
2024/04/11 08:13:47;;;;;;;2.50;2.00;;;11.50;99.90;;;;;;5382347;26;20480;-72
2024/04/11 08:16:13;;;;;;;3.27;2.20;;;11.70;99.90;;;;;;5388725;26;21130;-73
2024/04/11 08:18:39;;;;;;;2.80;2.07;;;11.90;99.90;;;;;;5389244;26;20586;-74
2024/04/11 08:21:08;;;;;;;4.13;2.33;;;12.10;99.90;;;;;;5390388;26;20483;-72
2024/04/11 08:23:35;;;;;;;3.47;2.07;;;12.10;99.90;;;;;;5390080;26;20311;-72
2024/04/11 08:26:01;;;;;;;5.00;1.87;;;12.10;99.90;;;;;;5376434;26;20551;-72
2024/04/11 08:28:27;;;;;;;3.67;2.40;;;12.10;99.90;;;;;;5384985;26;20502;-72
2024/04/11 08:30:53;;;;;;;8.00;1.93;;;12.10;99.90;;;;;;5376469;26;20287;-72
2024/04/11 08:33:23;;;;;;;4.37;1.83;;;12.20;99.90;;;;;;5379612;26;20581;-73
2024/04/11 08:35:52;;;;;;;3.03;1.97;;;12.50;99.90;;;;;;5394185;26;20502;-74
2024/04/11 08:38:22;;;;;;;3.30;2.73;;;12.50;99.90;;;;;;5383180;26;20541;-72
2024/04/11 08:40:49;;;;;;;3.30;2.40;;;12.70;99.90;;;;;;5385186;26;20545;-69
2024/04/11 08:43:20;;;;;;;4.60;3.00;;;13.00;99.90;;;;;;5385295;26;20495;-73
2024/04/11 08:45:46;;;;;;;2.30;2.10;;;13.10;99.90;;;;;;5377940;26;20547;-72
2024/04/11 08:48:12;;;;;;;2.83;1.80;;;13.20;99.90;;;;;;5380746;26;20591;-72
2024/04/11 08:50:43;;;;;;;7.13;2.23;;;13.40;99.90;;;;;;5362031;26;20534;-72
2024/04/11 08:53:10;;;;;;;3.00;2.50;;;13.40;99.90;;;;;;5382781;26;20500;-74
2024/04/11 08:55:36;;;;;;;1.80;1.37;;;13.60;99.90;;;;;;5386403;26;20530;-72
2024/04/11 08:58:02;;;;;;;3.73;1.83;;;13.70;99.90;;;;;;5380013;26;20483;-73
2024/04/11 09:00:30;;;;;;;2.40;1.90;;;13.80;99.90;;;;;;5387770;26;20486;-72
2024/04/11 09:02:56;;;;;;;2.27;2.00;;;14.10;99.90;;;;;;5395596;26;21009;-73
2024/04/11 09:05:22;;;;;;;2.40;2.20;;;14.30;99.90;;;;;;5392995;26;20479;-74
2024/04/11 09:07:50;;;;;;;2.07;1.70;;;14.40;99.90;;;;;;5395455;26;20276;-72
2024/04/11 09:10:20;;;;;;;2.60;1.70;;;14.60;99.90;;;;;;5390873;26;20486;-72
2024/04/11 09:12:47;;;;;;;1.57;1.33;;;14.90;99.90;;;;;;5386860;26;20483;-72
2024/04/11 09:15:16;;;;;;;1.53;1.10;;;15.00;99.90;;;;;;5384270;26;20477;-72
2024/04/11 09:17:43;;;;;;;1.30;1.20;;;14.90;99.90;;;;;;5394483;26;20860;-73
2024/04/11 09:20:15;;;;;;;3.37;1.57;;;14.80;99.90;;;;;;5394914;26;20551;-72
2024/04/11 09:22:56;;;;;;;1.87;1.53;;;14.90;99.90;;;;;;5392846;26;20483;-72
2024/04/11 09:25:22;;;;;;;6.73;1.40;;;15.10;99.90;;;;;;5398364;26;20552;-74
2024/04/11 09:27:54;;;;;;;1.40;1.20;;;15.30;99.10;;;;;;5422465;26;20487;-73
2024/04/11 09:30:26;;;;;;;4.00;1.40;;;15.50;98.10;;;;;;5395777;26;20265;-75
2024/04/11 09:32:56;;;;;;;1.17;1.07;;;15.50;98.60;;;;;;5397620;26;20465;-73
2024/04/11 09:35:22;;;;;;;4.43;1.20;;;15.70;98.50;;;;;;5369546;26;21000;-72
2024/04/11 09:37:54;;;;;;;2.03;1.37;;;15.80;97.50;;;;;;5401663;26;20567;-74
2024/04/11 09:40:26;;;;;;;1.13;1.07;;;15.90;97.70;;;;;;5392487;26;20478;-72
2024/04/11 09:43:03;;;;;;;1.67;1.33;;;15.90;96.30;;;;;;5392966;26;20543;-73
2024/04/11 09:45:32;;;;;;;2.70;1.50;;;16.00;96.90;;;;;;5386693;26;21061;-74
2024/04/11 09:48:02;;;;;;;3.03;1.37;;;15.90;97.80;;;;;;5369812;26;20570;-72
2024/04/11 09:50:30;;;;;;;5.00;1.60;;;15.90;97.60;;;;;;5394758;26;20491;-71
2024/04/11 09:52:59;;;;;;;3.13;1.40;;;15.90;98.50;;;;;;5392962;26;20601;-73
2024/04/11 09:55:33;;;;;;;2.57;1.60;;;15.80;97.50;;;;;;5387752;26;20476;-74
2024/04/11 09:58:04;;;;;;;2.13;1.40;;;15.90;98.10;;;;;;5382355;26;21076;-73
2024/04/11 10:00:48;;;;;;;3.73;1.70;;;15.90;98.20;;;;;;5390031;26;20495;-72
2024/04/11 10:03:22;;;;;;;3.17;1.70;;;15.90;98.00;;;;;;5357759;26;20545;-72
2024/04/11 10:05:50;;;;;;;2.43;1.60;;;15.90;98.60;;;;;;5385166;26;20491;-73
2024/04/11 10:08:38;;;;;;;3.67;1.70;;;15.90;98.20;;;;;;5394256;26;20483;-73
2024/04/11 10:11:10;;;;;;;2.43;1.93;;;15.90;98.80;;;;;;5393130;26;20534;-72
2024/04/11 10:13:40;;;;;;;1.80;1.70;;;16.00;98.30;;;;;;5394847;26;20504;-73
2024/04/11 10:16:28;;;;;;;5.37;1.90;;;16.00;98.40;;;;;;5388754;26;20529;-73
2024/04/11 10:18:55;;;;;;;2.40;1.50;;;16.10;97.30;;;;;;5390030;26;20604;-74
2024/04/11 10:21:27;;;;;;;2.53;1.20;;;16.10;96.20;;;;;;5394000;26;20600;-72
2024/04/11 10:23:54;;;;;;;1.80;1.20;;;16.20;96.90;;;;;;5390506;26;20479;-70
2024/04/11 10:26:32;;;;;;;2.80;1.30;;;16.20;96.70;;;;;;5390877;26;20499;-73
2024/04/11 10:29:10;;;;;;;2.70;1.03;;;16.20;97.30;;;;;;5387860;26;20503;-73
2024/04/11 10:31:36;;;;;;;1.63;0.90;;;16.40;96.60;;;;;;5413136;26;20563;-73
2024/04/11 10:34:10;;;;;;;1.17;0.97;;;16.60;95.20;;;;;;5394666;26;20521;-74
2024/04/11 10:36:42;;;;;;;3.10;1.60;;;16.70;95.20;;;;;;5392328;26;20467;-73
2024/04/11 10:39:08;;;;;;;2.53;1.47;;;16.70;95.70;;;;;;5389744;26;20624;-73
2024/04/11 10:41:35;;;;;;;1.33;1.00;;;16.60;95.50;;;;;;5380212;26;21135;-75
2024/04/11 10:44:05;;;;;;;4.70;1.00;;;16.70;95.30;;;;;;5383353;26;20476;-75
2024/04/11 10:46:32;;;;;;;1.07;0.97;;;16.70;95.00;;;;;;5390998;26;20486;-72
2024/04/11 10:49:12;;;;;;;1.87;0.93;;;16.60;95.10;;;;;;5396267;26;20634;-73
2024/04/11 10:51:43;;;;;;;3.93;1.30;;;16.60;95.60;;;;;;5389336;26;20498;-72
2024/04/11 10:54:09;;;;;;;1.60;1.00;;;16.60;95.00;;;;;;5397454;26;20474;-72
2024/04/11 10:56:43;;;;;;;1.33;0.90;;;16.90;94.00;;;;;;5400553;26;20531;-74
2024/04/11 10:59:18;;;;;;;1.50;0.93;;;17.00;93.50;;;;;;5389632;26;20366;-73
2024/04/11 11:01:50;;;;;;;3.43;1.10;;;17.00;93.10;;;;;;5387685;26;20539;-72
2024/04/11 11:04:20;;;;;;;3.27;1.40;;;17.00;92.70;;;;;;5421026;26;20529;-73
2024/04/11 11:06:54;;;;;;;2.50;0.80;;;16.90;93.00;;;;;;5367398;26;20536;-72
2024/04/11 11:09:22;;;;;;;0.73;0.73;;;17.00;93.60;;;;;;5390514;26;20496;-73
2024/04/11 11:11:49;;;;;;;1.07;0.97;;;17.10;94.30;;;;;;5388558;26;20487;-73
2024/04/11 11:14:20;;;;;;;2.30;1.37;;;17.10;94.10;;;;;;5391141;26;20567;-73
2024/04/11 11:16:47;;;;;;;1.90;1.20;;;17.10;93.10;;;;;;5388230;26;20491;-73
2024/04/11 11:19:16;;;;;;;2.60;1.40;;;17.10;94.30;;;;;;5372408;26;21333;-74
2024/04/11 11:21:50;;;;;;;1.30;1.17;;;17.10;94.60;;;;;;5391983;26;20483;-73
2024/04/11 11:24:20;;;;;;;1.27;1.27;;;17.10;94.80;;;;;;5368436;26;20522;-73
2024/04/11 11:26:46;;;;;;;1.47;1.20;;;17.20;94.80;;;;;;5394565;26;20492;-73
2024/04/11 11:29:20;;;;;;;1.03;0.93;;;17.40;94.70;;;;;;5404293;26;20495;-73
2024/04/11 11:31:50;;;;;;;3.40;1.10;;;17.40;94.00;;;;;;5386881;26;20544;-72
2024/04/11 11:34:17;;;;;;;1.43;1.20;;;17.40;93.00;;;;;;5362287;26;20523;-72
2024/04/11 11:36:44;;;;;;;1.77;1.27;;;17.40;94.30;;;;;;5390732;26;21044;-74
2024/04/11 11:39:25;;;;;;;4.73;2.10;;;17.40;93.70;;;;;;5398971;26;20547;-73
2024/04/11 11:42:00;;;;;;;2.97;1.33;;;17.40;94.60;;;;;;5397574;26;21064;-73
2024/04/11 11:44:34;;;;;;;2.73;1.40;;;17.50;93.40;;;;;;5398698;26;20480;-73
2024/04/11 11:47:08;;;;;;;1.37;1.17;;;17.60;94.10;;;;;;5359183;26;20500;-73
2024/04/11 11:49:38;;;;;;;1.07;0.80;;;17.60;93.60;;;;;;5397477;26;20498;-73
2024/04/11 11:52:05;;;;;;;2.00;1.07;;;17.60;93.60;;;;;;5387589;26;20484;-73
2024/04/11 11:54:34;;;;;;;5.13;1.33;;;17.70;94.40;;;;;;5385382;26;20469;-73
2024/04/11 11:57:17;;;;;;;3.00;2.17;;;17.80;94.60;;;;;;5392286;26;20534;-73
2024/04/11 11:59:47;;;;;;;2.30;1.07;;;17.80;93.20;;;;;;5385945;26;21064;-74
2024/04/11 12:02:15;;;;;;;3.60;1.30;;;17.80;93.10;;;;;;5392625;26;20487;-73
2024/04/11 12:04:44;;;;;;;2.60;1.33;;;17.80;93.30;;;;;;5374299;26;20479;-73
2024/04/11 12:07:13;;;;;;;1.33;1.17;;;17.80;93.60;;;;;;5402559;26;20494;-74
2024/04/11 12:09:43;;;;;;;1.63;1.40;;;17.90;93.60;;;;;;5395839;26;20488;-73
2024/04/11 12:12:23;;;;;;;1.30;1.10;;;17.90;93.40;;;;;;5366986;26;20479;-74
2024/04/11 12:15:01;;;;;;;1.30;1.20;;;17.90;93.10;;;;;;5390461;26;20495;-73
2024/04/11 12:17:27;;;;;;;2.50;1.20;;;17.90;93.30;;;;;;5392874;26;20539;-74
2024/04/11 12:19:53;;;;;;;1.30;1.10;;;17.90;93.10;;;;;;5399564;26;20471;-73
2024/04/11 12:22:20;;;;;;;1.70;1.30;;;17.90;93.30;;;;;;5393226;26;20485;-74
2024/04/11 12:24:46;;;;;;;1.53;1.00;;;17.90;92.90;;;;;;5391605;26;20488;-72
2024/04/11 12:27:14;;;;;;;4.10;1.50;;;17.90;92.90;;;;;;5393436;26;20494;-73
2024/04/11 12:29:42;;;;;;;1.10;1.10;;;17.90;93.10;;;;;;5388258;26;20600;-72
2024/04/11 12:32:12;;;;;;;1.30;1.10;;;18.00;93.60;;;;;;5397374;26;20495;-73
2024/04/11 12:34:42;;;;;;;1.20;1.10;;;18.00;93.30;;;;;;5386610;26;20487;-75
2024/04/11 12:37:16;;;;;;;3.53;1.50;;;18.10;93.80;;;;;;5358882;26;20546;-74
2024/04/11 12:39:45;;;;;;;2.07;1.00;;;18.10;92.70;;;;;;5398665;26;20523;-73
2024/04/11 12:42:17;;;;;;;1.50;1.40;;;18.10;92.20;;;;;;5396301;26;21039;-73
2024/04/11 12:44:55;;;;;;;1.43;1.17;;;18.20;92.60;;;;;;5387512;26;20495;-73
2024/04/11 12:47:38;;;;;;;4.53;1.17;;;18.20;92.60;;;;;;5391261;26;21377;-74
2024/04/11 12:50:12;;;;;;;3.90;1.30;;;18.20;92.80;;;;;;5394320;26;20468;-74
2024/04/11 12:52:44;;;;;;;1.30;1.20;;;18.30;92.10;;;;;;5369821;26;20540;-73
2024/04/11 12:55:11;;;;;;;1.53;1.20;;;18.30;91.60;;;;;;5387282;26;20483;-75
2024/04/11 12:57:37;;;;;;;1.37;0.97;;;18.30;92.50;;;;;;5392770;26;20884;-72
2024/04/11 13:03:06;;;;;;;2.03;1.93;;;18.40;93.00;;;;;;5384572;26;20835;-73
2024/04/11 13:05:51;;;;;;;1.50;1.40;;;18.50;92.90;;;;;;5389282;26;20534;-73
2024/04/11 13:08:18;;;;;;;2.37;1.70;;;18.60;92.20;;;;;;5355242;26;20560;-76